FAOR/JNB METAR and TAF weather

Enter ICAO airport designator
Station Type Date Time Source
FAOR METAR 2018/07/17 00:00 UTC NOAA

FAOR 170000Z 08003KT 060V130 CAVOK 02/M02 Q1036 NOSIG


Station Type Date Time Source
FAOR Decoded METAR 2018/07/17 00:00 UTC NOAA

Station name not available
Jul 16, 2018 - 08:00 PM EDT / 2018.07.17 0000 UTC
Wind: from the E (080 degrees) at 3 MPH (3 KT) (direction variable):0
Visibility: greater than 7 mile(s):0
Temperature: 35 F (2 C)
Dew Point: 28 F (-2 C)
Relative Humidity: 74%
Pressure (altimeter): 30.59 in. Hg (1036 hPa)
ob: FAOR 170000Z 08003KT 060V130 CAVOK 02/M02 Q1036 NOSIG
cycle: 0

Station Type Date Time Source
FAOR TAF 2018/07/16 18:00 UTC NOAA

TAF FAOR 161600Z 1618/1724 06005KT CAVOK
BECMG 1622/1624 BKN010 PROB40
TEMPO 1701/1707 4000 BR BKN005 PROB30
TEMPO 1703/1705 0500 FG VV001
BECMG 1707/1709 12010KT CAVOK
BECMG 1716/1718 02008KT TX14/1712Z TN02/1704Z


Example: see airport list